McNeal, Arizona
Current Conditions -  °F | °C
As of 11:56 PM on Friday 24 Oct 2014 (Local Time) from KDUG Reporting Station
Clear Clear  
Wind Chill: 58°   Ceiling: Unl
Heat Index: 58°   Visibility: 10mi
Dew Point: 46°   Wind: 10mph
Humidity: 65%   Direction: 10°N
Pressure: 30.2"   Gusts: NA
Location:  31.6°N, 109.67°W
Report Text: KDUG 250656Z AUTO 01009KT 10SM CLR 14/08 A3020 RMK AO2 SLP168 T01440078 403000072
Loading
Personal Weather Stations






























Interactive Weather Map
Tropical Storm Tracking
New forecast layout! Learn more

10-Day Weather Forecast

Advertisements
Track Severe Weather on mobile